createdAt,value
2018-04-11T00:00:37.381Z,4.60
2018-04-11T00:03:05.481Z,4.10
2018-04-11T00:05:33.587Z,3.33
2018-04-11T00:08:02.445Z,4.67
2018-04-11T00:10:30.541Z,3.27
2018-04-11T00:12:59.426Z,3.57
2018-04-11T00:15:27.508Z,5.20
2018-04-11T00:17:56.316Z,5.33
2018-04-11T00:20:24.389Z,3.33
2018-04-11T00:22:52.461Z,5.30
2018-04-11T00:25:20.535Z,3.37
2018-04-11T00:27:48.596Z,4.60
2018-04-11T00:30:16.658Z,3.03
2018-04-11T00:32:44.756Z,3.43
2018-04-11T00:35:12.809Z,2.93
2018-04-11T00:37:40.862Z,3.30
2018-04-11T00:40:08.928Z,3.00
2018-04-11T00:42:36.985Z,3.77
2018-04-11T00:45:05.036Z,5.00
2018-04-11T00:47:33.106Z,4.57
2018-04-11T00:50:01.166Z,3.30
2018-04-11T00:52:29.991Z,2.90
2018-04-11T00:54:58.063Z,4.57
2018-04-11T00:57:26.876Z,5.07
2018-04-11T00:59:54.930Z,5.47
2018-04-11T01:02:22.994Z,3.20
2018-04-11T01:04:51.066Z,5.87
2018-04-11T01:07:19.118Z,5.23
2018-04-11T01:09:47.186Z,5.87
2018-04-11T01:12:15.252Z,7.63
2018-04-11T01:14:43.322Z,4.20
2018-04-11T01:17:11.382Z,3.30
2018-04-11T01:19:39.456Z,10.30
2018-04-11T01:22:07.508Z,3.70
2018-04-11T01:24:35.561Z,5.50
2018-04-11T01:27:03.632Z,4.50
2018-04-11T01:29:31.698Z,4.20
2018-04-11T01:31:59.783Z,4.60
2018-04-11T01:34:27.848Z,4.57
2018-04-11T01:36:55.911Z,3.20
2018-04-11T01:39:23.981Z,4.77
2018-04-11T01:41:52.029Z,3.70
2018-04-11T01:44:20.841Z,5.43
2018-04-11T01:46:48.921Z,3.30
2018-04-11T01:49:16.965Z,3.97
2018-04-11T01:51:45.037Z,4.40
2018-04-11T01:54:13.092Z,11.73
2018-04-11T01:56:41.157Z,4.33
2018-04-11T01:59:09.208Z,4.50
2018-04-11T02:01:37.263Z,5.67
2018-04-11T02:04:05.329Z,4.40
2018-04-11T02:06:33.391Z,4.23
2018-04-11T02:09:01.441Z,5.40
2018-04-11T02:11:29.513Z,6.70
2018-04-11T02:13:57.568Z,4.60
2018-04-11T02:16:26.413Z,5.90
2018-04-11T02:18:54.472Z,4.60
2018-04-11T02:21:22.531Z,4.70
2018-04-11T02:23:50.599Z,4.43
2018-04-11T02:26:18.664Z,5.30
2018-04-11T02:28:46.721Z,5.50
2018-04-11T02:31:14.789Z,4.90
2018-04-11T02:33:42.844Z,9.40
2018-04-11T02:36:10.899Z,4.53
2018-04-11T02:38:38.970Z,5.23
2018-04-11T02:41:07.036Z,5.63
2018-04-11T02:43:35.103Z,4.70
2018-04-11T02:46:03.160Z,5.23
2018-04-11T02:48:31.246Z,7.60
2018-04-11T02:50:59.285Z,5.70
2018-04-11T02:53:27.347Z,7.83
2018-04-11T02:55:55.412Z,6.00
2018-04-11T02:58:23.470Z,6.00
2018-04-11T03:00:52.302Z,5.80
2018-04-11T03:03:20.356Z,9.53
2018-04-11T03:05:48.420Z,5.77
2018-04-11T03:08:16.495Z,8.93
2018-04-11T03:10:44.543Z,6.33
2018-04-11T03:13:13.369Z,5.10
2018-04-11T03:15:41.435Z,5.60
2018-04-11T03:18:09.497Z,9.23
2018-04-11T03:20:37.563Z,5.60
2018-04-11T03:23:05.639Z,12.27
2018-04-11T03:25:33.704Z,9.83
2018-04-11T03:28:01.773Z,8.37
2018-04-11T03:30:29.822Z,5.03
2018-04-11T03:32:57.871Z,5.40
2018-04-11T03:35:25.969Z,6.40
2018-04-11T03:37:54.054Z,5.90
2018-04-11T03:40:22.849Z,7.53
2018-04-11T03:42:50.917Z,5.77
2018-04-11T03:45:18.965Z,9.23
2018-04-11T03:47:48.181Z,9.87
2018-04-11T03:50:16.985Z,6.20
2018-04-11T03:52:45.032Z,7.83
2018-04-11T03:55:13.889Z,9.90
2018-04-11T03:57:41.933Z,7.40
2018-04-11T04:00:09.993Z,8.40
2018-04-11T04:02:38.062Z,6.13
2018-04-11T04:05:06.118Z,7.13
2018-04-11T04:07:34.219Z,7.70
2018-04-11T04:10:02.259Z,7.43
2018-04-11T04:12:31.077Z,9.53
2018-04-11T04:15:10.903Z,7.23
2018-04-11T04:17:50.799Z,6.90
2018-04-11T04:20:30.755Z,9.43
2018-04-11T04:22:58.811Z,6.53
2018-04-11T04:25:26.871Z,10.73
2018-04-11T04:27:54.963Z,8.07
2018-04-11T04:30:23.071Z,8.17
2018-04-11T04:32:51.076Z,11.53
2018-04-11T04:35:19.149Z,9.67
2018-04-11T04:37:47.205Z,11.47
2018-04-11T04:40:15.277Z,11.63
2018-04-11T04:42:43.358Z,10.33
2018-04-11T04:45:11.409Z,7.63
2018-04-11T04:47:39.503Z,7.70
2018-04-11T04:50:07.521Z,7.93
2018-04-11T04:52:36.362Z,6.63
2018-04-11T04:55:05.179Z,7.83
2018-04-11T04:57:33.239Z,9.50
2018-04-11T05:00:01.315Z,12.77
2018-04-11T05:02:29.384Z,8.63
2018-04-11T05:04:57.453Z,14.67
2018-04-11T05:07:25.518Z,10.20
2018-04-11T05:09:53.587Z,10.03
2018-04-11T05:15:05.306Z,12.83
2018-04-11T05:17:33.390Z,18.80
2018-04-11T05:20:01.462Z,17.87
2018-04-11T05:22:29.524Z,17.47
2018-04-11T05:24:57.575Z,9.77
2018-04-11T05:27:25.647Z,11.53
2018-04-11T05:29:53.710Z,11.03
2018-04-11T05:32:21.800Z,10.53
2018-04-11T05:34:49.853Z,12.90
2018-04-11T05:37:17.913Z,16.97
2018-04-11T05:39:45.993Z,22.27
2018-04-11T05:42:14.061Z,24.33
2018-04-11T05:44:42.889Z,28.47
2018-04-11T05:47:11.732Z,24.13
2018-04-11T05:49:39.789Z,17.07
2018-04-11T05:52:07.859Z,25.97
2018-04-11T05:54:35.948Z,20.67
2018-04-11T05:57:04.026Z,21.10
2018-04-11T05:59:32.084Z,17.10
2018-04-11T06:02:00.174Z,15.93
2018-04-11T06:04:28.231Z,19.27
2018-04-11T06:06:56.314Z,13.10
2018-04-11T06:09:24.375Z,13.57
2018-04-11T06:11:52.446Z,31.13
2018-04-11T06:14:20.518Z,25.40
2018-04-11T06:16:48.590Z,14.00
2018-04-11T06:19:16.651Z,12.93
2018-04-11T06:21:44.713Z,13.40
2018-04-11T06:24:12.776Z,16.60
2018-04-11T06:26:40.853Z,11.23
2018-04-11T06:29:08.917Z,10.57
2018-04-11T06:31:36.981Z,9.43
2018-04-11T06:34:05.075Z,14.60
2018-04-11T06:36:33.133Z,13.87
2018-04-11T06:39:01.239Z,15.40
2018-04-11T06:41:29.257Z,11.83
2018-04-11T06:43:58.091Z,14.23
2018-04-11T06:46:26.144Z,10.73
2018-04-11T06:48:54.237Z,9.27
2018-04-11T06:51:22.290Z,9.50
2018-04-11T06:53:50.353Z,10.00
2018-04-11T06:56:18.423Z,13.03
2018-04-11T06:58:46.486Z,10.90
2018-04-11T07:01:14.550Z,8.43
2018-04-11T07:03:42.609Z,11.87
2018-04-11T07:06:10.673Z,19.70
2018-04-11T07:08:38.732Z,11.63
2018-04-11T07:11:06.948Z,13.30
2018-04-11T07:13:34.975Z,18.83
2018-04-11T07:16:03.050Z,14.80
2018-04-11T07:18:31.112Z,12.10
2018-04-11T07:20:59.170Z,10.30
2018-04-11T07:23:27.261Z,11.23
2018-04-11T07:25:55.356Z,9.43
2018-04-11T07:28:23.356Z,13.60
2018-04-11T07:30:51.441Z,9.87
2018-04-11T07:33:19.498Z,12.30
2018-04-11T07:35:47.547Z,11.07
2018-04-11T07:38:15.615Z,12.40
2018-04-11T07:40:43.665Z,13.67
2018-04-11T07:43:12.494Z,10.90
2018-04-11T07:45:40.541Z,10.53
2018-04-11T07:48:09.377Z,9.30
2018-04-11T07:50:37.459Z,16.30
2018-04-11T07:53:05.512Z,8.57
2018-04-11T07:55:33.583Z,8.67
2018-04-11T07:58:01.647Z,14.40
2018-04-11T08:00:29.750Z,10.50
2018-04-11T08:02:58.577Z,11.20
2018-04-11T08:05:27.401Z,9.57
2018-04-11T08:07:55.503Z,9.77
2018-04-11T08:10:23.557Z,11.87
2018-04-11T08:12:51.633Z,13.40
2018-04-11T08:15:19.714Z,9.63
2018-04-11T08:17:47.767Z,9.27
2018-04-11T08:20:15.844Z,11.10
2018-04-11T08:22:43.904Z,9.77
2018-04-11T08:25:11.963Z,15.10
2018-04-11T08:27:40.044Z,16.53
2018-04-11T08:30:08.100Z,13.50
2018-04-11T08:32:36.165Z,11.37
2018-04-11T08:35:04.237Z,12.30
2018-04-11T08:37:32.302Z,11.33
2018-04-11T08:40:00.362Z,10.80
2018-04-11T08:42:29.228Z,15.03
2018-04-11T08:44:57.290Z,15.10
2018-04-11T08:47:25.369Z,12.47
2018-04-11T08:49:53.416Z,13.10
2018-04-11T08:52:21.477Z,11.93
2018-04-11T08:54:49.539Z,13.53
2018-04-11T08:57:17.611Z,13.83
2018-04-11T08:59:45.668Z,11.83
2018-04-11T09:02:13.742Z,9.57
2018-04-11T09:04:41.804Z,11.83
2018-04-11T09:07:09.868Z,9.43
2018-04-11T09:09:37.932Z,8.30
2018-04-11T09:12:06.004Z,9.47
2018-04-11T09:14:34.068Z,9.00
2018-04-11T09:17:02.124Z,7.07
2018-04-11T09:19:30.237Z,9.10
2018-04-11T09:21:58.256Z,5.50
2018-04-11T09:24:26.324Z,5.90
2018-04-11T09:26:54.372Z,6.53
2018-04-11T09:29:22.432Z,4.50
2018-04-11T09:31:50.553Z,4.80
2018-04-11T09:34:18.561Z,6.03
2018-04-11T09:36:46.622Z,5.63
2018-04-11T09:39:14.679Z,6.80
2018-04-11T09:41:42.758Z,4.63
2018-04-11T09:44:10.808Z,6.80
2018-04-11T09:46:38.870Z,6.20
2018-04-11T09:49:06.932Z,6.60
2018-04-11T09:51:35.001Z,11.53
2018-04-11T09:54:03.059Z,6.90
2018-04-11T09:56:31.128Z,13.50
2018-04-11T09:58:59.183Z,9.13
2018-04-11T10:01:27.248Z,5.70
2018-04-11T10:03:55.340Z,5.43
2018-04-11T10:06:23.390Z,5.83
2018-04-11T10:08:51.449Z,6.60
2018-04-11T10:11:19.519Z,6.10
2018-04-11T10:13:47.566Z,4.77
2018-04-11T10:16:16.503Z,6.60
2018-04-11T10:18:44.577Z,6.73
2018-04-11T10:21:12.648Z,4.40
2018-04-11T10:23:40.717Z,5.10
2018-04-11T10:26:08.772Z,6.40
2018-04-11T10:28:36.823Z,5.30
2018-04-11T10:31:05.653Z,4.40
2018-04-11T10:33:33.709Z,8.47
2018-04-11T10:36:01.783Z,4.90
2018-04-11T10:38:29.847Z,4.90
2018-04-11T10:40:57.903Z,5.43
2018-04-11T10:43:25.973Z,5.03
2018-04-11T10:45:54.026Z,8.10
2018-04-11T10:48:22.846Z,5.00
2018-04-11T10:50:50.929Z,5.77
2018-04-11T10:53:18.987Z,4.77
2018-04-11T10:55:47.047Z,5.90
2018-04-11T10:58:15.109Z,9.53
2018-04-11T11:00:43.169Z,4.43
2018-04-11T11:03:11.227Z,6.80
2018-04-11T11:05:39.287Z,4.53
2018-04-11T11:08:07.337Z,7.50
2018-04-11T11:10:35.411Z,5.30
2018-04-11T11:13:03.506Z,4.57
2018-04-11T11:15:31.754Z,4.67
2018-04-11T11:17:59.782Z,3.27
2018-04-11T11:20:27.848Z,6.13
2018-04-11T11:22:55.931Z,5.43
2018-04-11T11:25:24.004Z,3.43
2018-04-11T11:27:52.060Z,2.90
2018-04-11T11:30:20.888Z,3.90
2018-04-11T11:32:48.948Z,3.70
2018-04-11T11:35:17.036Z,3.63
2018-04-11T11:37:45.096Z,14.07
2018-04-11T11:40:13.156Z,10.17
2018-04-11T11:42:41.228Z,5.40
2018-04-11T11:45:09.290Z,32.97
2018-04-11T11:47:37.358Z,23.23
2018-04-11T11:50:05.424Z,7.17
2018-04-11T11:52:34.279Z,13.13
2018-04-11T11:55:02.352Z,4.33
2018-04-11T11:57:30.461Z,32.47
2018-04-11T11:59:58.470Z,32.00
2018-04-11T12:02:27.332Z,16.20
2018-04-11T12:04:55.397Z,7.53
2018-04-11T12:07:23.449Z,6.70
2018-04-11T12:09:52.288Z,4.95
2018-04-11T12:12:21.107Z,9.10
2018-04-11T12:14:49.172Z,26.73
2018-04-11T12:17:17.438Z,5.50
2018-04-11T12:19:45.493Z,19.93
2018-04-11T12:22:13.561Z,25.77
2018-04-11T12:24:41.633Z,3.53
2018-04-11T12:27:09.689Z,5.77
2018-04-11T12:29:37.749Z,3.10
2018-04-11T12:32:05.871Z,3.67
2018-04-11T12:34:33.898Z,7.63
2018-04-11T12:37:01.955Z,4.40
2018-04-11T12:39:30.030Z,2.40
2018-04-11T12:41:58.307Z,3.20
2018-04-11T12:44:27.100Z,3.27
2018-04-11T12:46:55.171Z,2.63
2018-04-11T12:49:23.237Z,5.30
2018-04-11T12:51:51.292Z,3.13
2018-04-11T12:54:19.352Z,6.00
2018-04-11T12:56:48.389Z,5.50
2018-04-11T12:59:16.481Z,5.43
2018-04-11T13:01:45.308Z,2.70
2018-04-11T13:04:14.129Z,2.57
2018-04-11T13:06:42.197Z,2.80
2018-04-11T13:09:10.253Z,4.80
2018-04-11T13:11:38.353Z,2.50
2018-04-11T13:14:06.417Z,3.13
2018-04-11T13:16:34.472Z,3.60
2018-04-11T13:19:02.566Z,2.70
2018-04-11T13:21:30.633Z,2.10
2018-04-11T13:23:58.699Z,7.20
2018-04-11T13:26:26.785Z,3.73
2018-04-11T13:28:54.843Z,7.17
2018-04-11T13:31:22.900Z,7.10
2018-04-11T13:33:50.957Z,4.83
2018-04-11T13:36:19.018Z,2.73
2018-04-11T13:38:47.072Z,2.07
2018-04-11T13:41:15.132Z,3.23
2018-04-11T13:43:43.200Z,5.90
2018-04-11T13:46:11.268Z,5.13
2018-04-11T13:48:39.330Z,2.57
2018-04-11T13:51:07.394Z,3.37
2018-04-11T13:53:35.446Z,4.10
2018-04-11T13:56:03.520Z,7.47
2018-04-11T13:58:31.574Z,6.03
2018-04-11T14:00:59.649Z,6.73
2018-04-11T14:03:28.472Z,4.60
2018-04-11T14:05:56.540Z,7.30
2018-04-11T14:08:24.643Z,4.27
2018-04-11T14:10:54.208Z,2.63
2018-04-11T14:13:22.269Z,5.00
2018-04-11T14:15:51.109Z,3.40
2018-04-11T14:18:19.161Z,4.50
2018-04-11T14:20:47.224Z,4.00
2018-04-11T14:23:15.319Z,8.93
2018-04-11T14:25:43.375Z,3.30
2018-04-11T14:28:11.441Z,13.63
2018-04-11T14:30:39.540Z,12.50
2018-04-11T14:33:07.601Z,2.67
2018-04-11T14:35:35.661Z,3.40
2018-04-11T14:38:03.730Z,4.07
2018-04-11T14:40:31.780Z,4.00
2018-04-11T14:42:59.877Z,5.73
2018-04-11T14:45:27.927Z,8.53
2018-04-11T14:47:55.983Z,8.57
2018-04-11T14:50:24.041Z,8.17
2018-04-11T14:52:52.112Z,6.80
2018-04-11T14:55:20.161Z,4.20
2018-04-11T14:57:48.230Z,5.20
2018-04-11T15:00:16.282Z,7.30
2018-04-11T15:02:44.350Z,4.43
2018-04-11T15:05:12.421Z,6.20
2018-04-11T15:07:40.480Z,5.80
2018-04-11T15:10:08.541Z,5.67
2018-04-11T15:12:36.614Z,7.27
2018-04-11T15:15:05.428Z,7.87
2018-04-11T15:17:33.488Z,3.70
2018-04-11T15:20:01.562Z,4.73
2018-04-11T15:22:29.634Z,9.00
2018-04-11T15:24:57.686Z,4.33
2018-04-11T15:27:25.894Z,7.73
2018-04-11T15:29:53.962Z,6.13
2018-04-11T15:32:22.027Z,12.43
2018-04-11T15:34:50.086Z,8.43
2018-04-11T15:37:18.143Z,4.97
2018-04-11T15:39:46.208Z,4.03
2018-04-11T15:42:14.281Z,9.83
2018-04-11T15:44:42.344Z,7.10
2018-04-11T15:47:10.398Z,4.60
2018-04-11T15:49:38.456Z,5.60
2018-04-11T15:52:06.516Z,11.83
2018-04-11T15:54:35.346Z,3.63
2018-04-11T15:57:03.408Z,3.43
2018-04-11T15:59:31.470Z,6.57
2018-04-11T16:01:59.538Z,5.80
2018-04-11T16:04:27.604Z,4.53
2018-04-11T16:06:55.662Z,8.63
2018-04-11T16:09:23.720Z,4.23
2018-04-11T16:11:51.809Z,4.10
2018-04-11T16:14:19.862Z,8.10
2018-04-11T16:16:47.923Z,6.00
2018-04-11T16:19:16.018Z,3.20
2018-04-11T16:21:44.045Z,3.83
2018-04-11T16:24:12.106Z,3.60
2018-04-11T16:26:40.169Z,6.00
2018-04-11T16:29:08.229Z,3.60
2018-04-11T16:31:36.279Z,4.17
2018-04-11T16:34:04.342Z,5.17
2018-04-11T16:36:33.165Z,3.43
2018-04-11T16:39:01.229Z,2.90
2018-04-11T16:41:29.292Z,5.30
2018-04-11T16:43:57.345Z,6.20
2018-04-11T16:46:25.439Z,6.93
2018-04-11T16:48:53.496Z,5.60
2018-04-11T16:51:21.557Z,6.83
2018-04-11T16:53:49.621Z,4.20
2018-04-11T16:56:17.673Z,6.07
2018-04-11T16:58:45.736Z,6.80
2018-04-11T17:01:13.813Z,7.13
2018-04-11T17:03:41.879Z,9.43
2018-04-11T17:06:09.939Z,7.67
2018-04-11T17:08:38.011Z,6.13
2018-04-11T17:11:06.074Z,9.93
2018-04-11T17:13:34.144Z,12.23
2018-04-11T17:16:02.232Z,12.43
2018-04-11T17:18:30.286Z,7.90
2018-04-11T17:21:10.158Z,16.07
2018-04-11T17:23:49.922Z,2.90
2018-04-11T17:26:30.592Z,9.63
2018-04-11T17:29:11.278Z,10.70
2018-04-11T17:31:39.359Z,18.43
2018-04-11T17:34:07.404Z,7.23
2018-04-11T17:36:35.482Z,7.30
2018-04-11T17:39:03.550Z,6.77
2018-04-11T17:41:31.622Z,8.77
2018-04-11T17:43:59.684Z,15.83
2018-04-11T17:46:27.740Z,9.93
2018-04-11T17:48:55.832Z,10.03
2018-04-11T17:51:23.943Z,6.33
2018-04-11T17:53:51.947Z,7.70
2018-04-11T17:56:20.034Z,7.83
2018-04-11T17:58:48.861Z,10.67
2018-04-11T18:01:16.916Z,8.73
2018-04-11T18:03:45.024Z,9.10
2018-04-11T18:06:13.106Z,10.57
2018-04-11T18:08:41.166Z,5.60
2018-04-11T18:11:09.242Z,9.77
2018-04-11T18:13:37.308Z,10.60
2018-04-11T18:16:05.370Z,9.63
2018-04-11T18:18:33.427Z,20.63
2018-04-11T18:21:01.498Z,18.00
2018-04-11T18:23:29.556Z,8.73
2018-04-11T18:25:57.614Z,10.17
2018-04-11T18:28:26.450Z,14.33
2018-04-11T18:30:54.510Z,12.23
2018-04-11T18:33:22.580Z,5.00
2018-04-11T18:35:50.641Z,9.77
2018-04-11T18:38:18.691Z,4.67
2018-04-11T18:40:47.527Z,6.00
2018-04-11T18:43:15.590Z,8.47
2018-04-11T18:45:43.649Z,11.90
2018-04-11T18:48:11.721Z,8.20
2018-04-11T18:50:39.785Z,12.30
2018-04-11T18:53:07.843Z,18.13
2018-04-11T18:55:35.921Z,9.57
2018-04-11T18:58:03.979Z,8.47
2018-04-11T19:00:32.805Z,11.97
2018-04-11T19:03:00.887Z,6.87
2018-04-11T19:05:29.069Z,2.70
2018-04-11T19:07:57.121Z,4.53
2018-04-11T19:10:25.189Z,6.10
2018-04-11T19:12:53.251Z,12.27
2018-04-11T19:15:21.335Z,7.50
2018-04-11T19:17:49.415Z,4.73
2018-04-11T19:20:17.459Z,7.30
2018-04-11T19:22:45.537Z,12.00
2018-04-11T19:25:13.615Z,6.43
2018-04-11T19:27:41.643Z,6.50
2018-04-11T19:30:10.499Z,3.67
2018-04-11T19:32:38.579Z,5.20
2018-04-11T19:35:06.644Z,6.47
2018-04-11T19:37:34.707Z,2.80
2018-04-11T19:40:02.802Z,7.63
2018-04-11T19:42:30.871Z,10.20
2018-04-11T19:44:58.933Z,12.93
2018-04-11T19:47:27.003Z,6.73
2018-04-11T19:49:55.117Z,3.30
2018-04-11T19:52:23.130Z,4.00
2018-04-11T19:54:51.210Z,5.23
2018-04-11T19:57:19.279Z,4.77
2018-04-11T19:59:47.356Z,5.07
2018-04-11T20:02:15.520Z,4.43
2018-04-11T20:04:43.570Z,9.47
2018-04-11T20:07:11.646Z,8.63
2018-04-11T20:09:39.703Z,6.20
2018-04-11T20:12:07.776Z,9.03
2018-04-11T20:14:35.874Z,5.17
2018-04-11T20:17:03.934Z,7.70
2018-04-11T20:19:31.996Z,11.60
2018-04-11T20:22:00.068Z,8.20
2018-04-11T20:24:28.154Z,6.23
2018-04-11T20:26:56.210Z,9.20
2018-04-11T20:29:24.301Z,8.57
2018-04-11T20:31:52.374Z,24.20
2018-04-11T20:34:20.442Z,11.83
2018-04-11T20:36:48.513Z,9.30
2018-04-11T20:39:16.580Z,10.73
2018-04-11T20:41:44.731Z,11.53
2018-04-11T20:44:12.820Z,7.83
2018-04-11T20:46:40.868Z,7.53
2018-04-11T20:49:08.936Z,10.13
2018-04-11T20:51:37.011Z,11.17
2018-04-11T20:54:05.065Z,7.13
2018-04-11T20:56:33.121Z,10.10
2018-04-11T20:59:01.216Z,10.83
2018-04-11T21:01:29.288Z,8.20
2018-04-11T21:03:57.339Z,7.33
2018-04-11T21:06:25.405Z,14.33
2018-04-11T21:08:54.229Z,7.83
2018-04-11T21:11:22.289Z,9.60
2018-04-11T21:13:50.410Z,9.80
2018-04-11T21:16:18.547Z,10.17
2018-04-11T21:18:46.601Z,7.67
2018-04-11T21:21:14.674Z,11.30
2018-04-11T21:23:42.755Z,11.87
2018-04-11T21:26:10.823Z,11.27
2018-04-11T21:28:38.886Z,12.47
2018-04-11T21:31:07.219Z,11.10
2018-04-11T21:33:35.282Z,13.77
2018-04-11T21:36:03.334Z,12.53
2018-04-11T21:38:31.402Z,10.27
2018-04-11T21:40:59.469Z,11.50
2018-04-11T21:43:27.550Z,14.67
2018-04-11T21:45:55.625Z,10.13
2018-04-11T21:48:23.684Z,11.03
2018-04-11T21:50:51.765Z,14.00
2018-04-11T21:53:19.825Z,7.90
2018-04-11T21:55:47.901Z,10.70
2018-04-11T21:58:15.971Z,10.40
2018-04-11T22:00:44.031Z,13.40
2018-04-11T22:03:12.095Z,9.53
2018-04-11T22:05:40.174Z,10.17
2018-04-11T22:08:08.256Z,8.93
2018-04-11T22:10:36.329Z,11.90
2018-04-11T22:13:04.384Z,12.63
2018-04-11T22:15:32.656Z,11.50
2018-04-11T22:18:00.727Z,18.93
2018-04-11T22:20:28.783Z,9.07
2018-04-11T22:22:56.848Z,11.80
2018-04-11T22:25:24.913Z,10.33
2018-04-11T22:27:53.746Z,8.87
2018-04-11T22:30:21.805Z,10.30
2018-04-11T22:32:49.870Z,11.00
2018-04-11T22:35:17.943Z,9.87
2018-04-11T22:37:46.014Z,12.67
2018-04-11T22:40:14.084Z,9.50
2018-04-11T22:42:42.165Z,11.50
2018-04-11T22:45:10.216Z,9.10
2018-04-11T22:47:38.272Z,7.80
2018-04-11T22:50:06.362Z,13.13
2018-04-11T22:52:34.428Z,11.60
2018-04-11T22:55:02.490Z,9.03
2018-04-11T22:57:30.575Z,13.53
2018-04-11T22:59:58.640Z,14.07
2018-04-11T23:02:26.704Z,10.80
2018-04-11T23:04:54.803Z,10.13
2018-04-11T23:07:22.859Z,9.37
2018-04-11T23:09:50.926Z,10.30
2018-04-11T23:12:18.993Z,8.73
2018-04-11T23:14:47.059Z,12.37
2018-04-11T23:17:15.127Z,14.73
2018-04-11T23:19:43.976Z,12.37
2018-04-11T23:22:12.039Z,12.50
2018-04-11T23:24:40.103Z,14.47
2018-04-11T23:27:08.171Z,13.83
2018-04-11T23:29:36.238Z,9.23
2018-04-11T23:32:04.301Z,15.93
2018-04-11T23:34:32.377Z,8.13
2018-04-11T23:37:00.441Z,11.03
2018-04-11T23:39:28.501Z,10.43
2018-04-11T23:41:56.569Z,9.87
2018-04-11T23:44:24.636Z,15.20
2018-04-11T23:46:52.708Z,15.67
2018-04-11T23:49:20.763Z,14.03
2018-04-11T23:51:49.592Z,11.63
2018-04-11T23:54:17.662Z,11.63
2018-04-11T23:56:45.777Z,17.73
2018-04-11T23:59:13.801Z,11.33
